CSN280 ENTC-ENSB
Flight info
| Callsign | CSN280 |
|---|---|
| Flight time | 1h 17m |
| Altitude | 38000 |
| Route | LOMVI P853 BETMA DCT EDIKI DCT OTVIK DCT RARAG |
| Aircraft | A35K/H-SDE2E3GHIJ3J4J5LM1ORWXY/LB1D1 |
Departure
| Time | 2026-04-27 06:31 |
|---|---|
| Airport | Tromsø Airport (ENTC) |
Arrival
| Time | 2026-04-27 07:48 |
|---|---|
| Airport | Svalbard Airport, Longyear (ENSB) |
| Time | Latitude | Longitude | Altitude | Speed | Heading |
|---|---|---|---|---|---|
| 2026-04-27 06:20 | 69.67870 | 18.91039 | 41 ft | 0 kts | 283° |
| 2026-04-27 06:28 | 69.67869 | 18.91028 | 42 ft | 1 kts | 264° |
| 2026-04-27 06:28 | 69.67854 | 18.91014 | 43 ft | 3 kts | 179° |
| 2026-04-27 06:28 | 69.67791 | 18.91040 | 43 ft | 15 kts | 176° |
| 2026-04-27 06:28 | 69.67653 | 18.91017 | 43 ft | 21 kts | 162° |
| 2026-04-27 06:29 | 69.67626 | 18.91111 | 44 ft | 7 kts | 92° |
| 2026-04-27 06:29 | 69.67626 | 18.91138 | 44 ft | 0 kts | 93° |
| 2026-04-27 06:29 | 69.67626 | 18.91148 | 44 ft | 2 kts | 93° |
| 2026-04-27 06:29 | 69.67623 | 18.91339 | 44 ft | 12 kts | 73° |
| 2026-04-27 06:30 | 69.67674 | 18.91451 | 44 ft | 9 kts | 23° |
| 2026-04-27 06:30 | 69.67753 | 18.91505 | 43 ft | 23 kts | 12° |
| 2026-04-27 06:30 | 69.68151 | 18.91769 | 38 ft | 94 kts | 13° |
| 2026-04-27 06:30 | 69.68990 | 18.92304 | 60 ft | 148 kts | 9° |
| 2026-04-27 06:31 | 69.69993 | 18.92922 | 679 ft | 145 kts | 12° |
| 2026-04-27 06:31 | 69.70994 | 18.93581 | 1323 ft | 150 kts | 13° |
| 2026-04-27 06:31 | 69.72102 | 18.94420 | 1632 ft | 179 kts | 13° |
| 2026-04-27 06:31 | 69.73377 | 18.95305 | 1956 ft | 206 kts | 12° |
| 2026-04-27 06:32 | 69.74839 | 18.96263 | 2495 ft | 222 kts | 12° |
| 2026-04-27 06:32 | 69.76383 | 18.97288 | 3417 ft | 224 kts | 12° |
| 2026-04-27 06:32 | 69.77909 | 18.98299 | 4110 ft | 232 kts | 11° |
| 2026-04-27 06:32 | 69.79540 | 18.98816 | 4893 ft | 239 kts | 1° |
| 2026-04-27 06:33 | 69.81215 | 18.98930 | 5767 ft | 242 kts | 360° |
| 2026-04-27 06:33 | 69.82912 | 18.98993 | 6704 ft | 245 kts | 360° |
| 2026-04-27 06:33 | 69.84625 | 18.99062 | 7578 ft | 247 kts | 359° |
| 2026-04-27 06:33 | 69.86355 | 18.99136 | 8481 ft | 250 kts | 359° |
| 2026-04-27 06:34 | 69.88085 | 18.99216 | 9378 ft | 254 kts | 359° |
| 2026-04-27 06:34 | 69.89872 | 18.99300 | 10267 ft | 257 kts | 359° |
| 2026-04-27 06:34 | 69.91714 | 18.99387 | 10823 ft | 275 kts | 359° |
| 2026-04-27 06:34 | 69.93702 | 18.99478 | 11206 ft | 296 kts | 359° |
| 2026-04-27 06:35 | 69.95834 | 18.99581 | 11592 ft | 316 kts | 359° |
| 2026-04-27 06:35 | 69.98110 | 18.99695 | 11984 ft | 335 kts | 359° |
| 2026-04-27 06:35 | 70.00478 | 18.99817 | 12587 ft | 345 kts | 360° |
| 2026-04-27 06:35 | 70.02901 | 18.99945 | 13387 ft | 350 kts | 360° |
| 2026-04-27 06:36 | 70.05362 | 19.00074 | 14187 ft | 355 kts | 360° |
| 2026-04-27 06:36 | 70.07859 | 19.00203 | 14867 ft | 361 kts | 360° |
| 2026-04-27 06:36 | 70.10355 | 19.00326 | 15559 ft | 366 kts | 360° |
| 2026-04-27 06:36 | 70.12913 | 19.00390 | 16247 ft | 370 kts | 359° |
| 2026-04-27 06:37 | 70.15508 | 19.00415 | 16976 ft | 374 kts | 359° |
| 2026-04-27 06:37 | 70.18120 | 19.00427 | 17738 ft | 378 kts | 359° |
| 2026-04-27 06:37 | 70.20743 | 19.00442 | 18413 ft | 384 kts | 359° |
| 2026-04-27 06:37 | 70.23475 | 19.00466 | 19113 ft | 387 kts | 360° |
| 2026-04-27 06:38 | 70.26179 | 19.00499 | 19853 ft | 390 kts | 359° |
| 2026-04-27 06:38 | 70.28909 | 19.00538 | 20487 ft | 396 kts | 359° |
| 2026-04-27 06:38 | 70.31702 | 19.00579 | 20983 ft | 405 kts | 360° |
| 2026-04-27 06:38 | 70.34496 | 19.00622 | 21681 ft | 408 kts | 360° |
| 2026-04-27 06:39 | 70.37344 | 19.00668 | 22405 ft | 410 kts | 360° |
| 2026-04-27 06:39 | 70.40230 | 19.00713 | 22957 ft | 417 kts | 0° |
| 2026-04-27 06:39 | 70.43164 | 19.00759 | 23509 ft | 424 kts | 0° |
| 2026-04-27 06:39 | 70.46118 | 19.00806 | 24156 ft | 425 kts | 360° |
| 2026-04-27 06:40 | 70.49079 | 19.00852 | 24828 ft | 426 kts | 360° |
| 2026-04-27 06:40 | 70.52049 | 19.00898 | 25363 ft | 429 kts | 360° |
| 2026-04-27 06:40 | 70.55055 | 19.00945 | 25914 ft | 433 kts | 360° |
| 2026-04-27 06:40 | 70.58080 | 19.00992 | 26535 ft | 435 kts | 360° |
| 2026-04-27 06:41 | 70.61118 | 19.01039 | 27070 ft | 439 kts | 360° |
| 2026-04-27 06:41 | 70.64203 | 19.01069 | 27570 ft | 444 kts | 359° |
| 2026-04-27 06:41 | 70.67249 | 19.00931 | 28150 ft | 446 kts | 358° |
| 2026-04-27 06:41 | 70.70369 | 19.00667 | 28656 ft | 450 kts | 358° |
| 2026-04-27 06:42 | 70.73514 | 19.00360 | 29127 ft | 454 kts | 357° |
| 2026-04-27 06:42 | 70.76685 | 19.00053 | 29631 ft | 457 kts | 357° |
| 2026-04-27 06:42 | 70.79879 | 18.99763 | 30127 ft | 460 kts | 358° |
| 2026-04-27 06:42 | 70.83088 | 18.99495 | 30600 ft | 460 kts | 357° |
| 2026-04-27 06:43 | 70.86281 | 18.99243 | 31159 ft | 458 kts | 357° |
| 2026-04-27 06:43 | 70.89469 | 18.98998 | 31551 ft | 460 kts | 357° |
| 2026-04-27 06:43 | 70.92676 | 18.98753 | 31952 ft | 461 kts | 357° |
| 2026-04-27 06:43 | 70.95890 | 18.98508 | 32330 ft | 463 kts | 357° |
| 2026-04-27 06:44 | 70.99124 | 18.98260 | 32609 ft | 466 kts | 357° |
| 2026-04-27 06:44 | 71.02373 | 18.98011 | 33031 ft | 466 kts | 357° |
| 2026-04-27 06:44 | 71.05617 | 18.97761 | 33468 ft | 466 kts | 357° |
| 2026-04-27 06:44 | 71.08857 | 18.97510 | 33873 ft | 466 kts | 357° |
| 2026-04-27 06:45 | 71.12058 | 18.97261 | 34222 ft | 466 kts | 357° |
| 2026-04-27 06:45 | 71.15306 | 18.97006 | 34513 ft | 467 kts | 357° |
| 2026-04-27 06:45 | 71.18556 | 18.96751 | 34794 ft | 468 kts | 357° |
| 2026-04-27 06:45 | 71.21818 | 18.96493 | 35073 ft | 468 kts | 357° |
| 2026-04-27 06:46 | 71.25088 | 18.96235 | 35360 ft | 469 kts | 357° |
| 2026-04-27 06:46 | 71.28344 | 18.95976 | 35627 ft | 469 kts | 357° |
| 2026-04-27 06:46 | 71.31615 | 18.95716 | 35895 ft | 470 kts | 357° |
| 2026-04-27 06:46 | 71.34893 | 18.95453 | 36116 ft | 472 kts | 357° |
| 2026-04-27 06:47 | 71.38186 | 18.95189 | 36357 ft | 472 kts | 357° |
| 2026-04-27 06:47 | 71.41475 | 18.94925 | 36608 ft | 473 kts | 357° |
| 2026-04-27 06:47 | 71.44731 | 18.94662 | 36855 ft | 473 kts | 357° |
| 2026-04-27 06:47 | 71.48023 | 18.94396 | 37079 ft | 474 kts | 357° |
| 2026-04-27 06:48 | 71.51323 | 18.94128 | 37300 ft | 474 kts | 357° |
| 2026-04-27 06:48 | 71.54626 | 18.93859 | 37521 ft | 474 kts | 357° |
| 2026-04-27 06:48 | 71.57928 | 18.93589 | 37735 ft | 475 kts | 357° |
| 2026-04-27 06:48 | 71.61234 | 18.93317 | 37939 ft | 475 kts | 357° |
| 2026-04-27 06:49 | 71.64542 | 18.93045 | 38129 ft | 476 kts | 357° |
| 2026-04-27 06:49 | 71.67866 | 18.92769 | 38190 ft | 480 kts | 358° |
| 2026-04-27 06:49 | 71.74579 | 18.92209 | 38173 ft | 484 kts | 358° |
| 2026-04-27 06:50 | 71.81319 | 18.91647 | 38172 ft | 483 kts | 357° |
| 2026-04-27 06:50 | 71.87986 | 18.91087 | 38175 ft | 482 kts | 357° |
| 2026-04-27 06:51 | 71.94704 | 18.90516 | 38167 ft | 482 kts | 357° |
| 2026-04-27 06:51 | 72.01422 | 18.89941 | 38167 ft | 482 kts | 357° |
| 2026-04-27 06:52 | 72.08134 | 18.89362 | 38168 ft | 483 kts | 357° |
| 2026-04-27 06:52 | 72.14868 | 18.88777 | 38168 ft | 484 kts | 357° |
| 2026-04-27 06:53 | 72.21576 | 18.88192 | 38168 ft | 484 kts | 357° |
| 2026-04-27 06:53 | 72.28319 | 18.87599 | 38167 ft | 484 kts | 357° |
| 2026-04-27 06:54 | 72.35068 | 18.87000 | 38167 ft | 484 kts | 357° |
| 2026-04-27 06:54 | 72.41810 | 18.86397 | 38181 ft | 484 kts | 357° |
| 2026-04-27 06:55 | 72.48571 | 18.85788 | 38162 ft | 486 kts | 357° |
| 2026-04-27 06:55 | 72.55291 | 18.85179 | 38166 ft | 486 kts | 357° |
| 2026-04-27 06:56 | 72.62059 | 18.84561 | 38164 ft | 486 kts | 357° |
| 2026-04-27 06:56 | 72.68818 | 18.83939 | 38167 ft | 486 kts | 357° |
| 2026-04-27 06:57 | 72.75579 | 18.83311 | 38161 ft | 486 kts | 357° |
| 2026-04-27 06:57 | 72.82338 | 18.82681 | 38164 ft | 486 kts | 357° |
| 2026-04-27 06:58 | 72.92496 | 18.81722 | 38166 ft | 486 kts | 357° |
| 2026-04-27 06:59 | 72.99220 | 18.81080 | 38166 ft | 486 kts | 357° |
| 2026-04-27 06:59 | 73.05993 | 18.80430 | 38166 ft | 486 kts | 357° |
| 2026-04-27 07:00 | 73.12772 | 18.79774 | 38163 ft | 486 kts | 357° |
| 2026-04-27 07:00 | 73.19530 | 18.79115 | 38171 ft | 486 kts | 357° |
| 2026-04-27 07:01 | 73.26304 | 18.78448 | 38165 ft | 487 kts | 357° |
| 2026-04-27 07:01 | 73.33040 | 18.77781 | 38167 ft | 487 kts | 357° |
| 2026-04-27 07:02 | 73.39821 | 18.77104 | 38171 ft | 487 kts | 357° |
| 2026-04-27 07:02 | 73.46597 | 18.76422 | 38172 ft | 487 kts | 357° |
| 2026-04-27 07:03 | 73.53376 | 18.75735 | 38182 ft | 487 kts | 357° |
| 2026-04-27 07:03 | 73.60165 | 18.75041 | 38168 ft | 488 kts | 357° |
| 2026-04-27 07:04 | 73.66947 | 18.74341 | 38173 ft | 488 kts | 357° |
| 2026-04-27 07:04 | 73.73735 | 18.73636 | 38170 ft | 488 kts | 357° |
| 2026-04-27 07:05 | 73.80523 | 18.72924 | 38164 ft | 488 kts | 357° |
| 2026-04-27 07:05 | 73.87274 | 18.72210 | 38176 ft | 488 kts | 357° |
| 2026-04-27 07:06 | 73.94090 | 18.71485 | 38175 ft | 489 kts | 357° |
| 2026-04-27 07:06 | 74.00858 | 18.70758 | 38174 ft | 489 kts | 357° |
| 2026-04-27 07:07 | 74.07670 | 18.70021 | 38167 ft | 489 kts | 357° |
| 2026-04-27 07:07 | 74.13317 | 18.69405 | 38173 ft | 489 kts | 357° |
| 2026-04-27 07:08 | 74.20126 | 18.68656 | 38172 ft | 489 kts | 357° |
| 2026-04-27 07:08 | 74.28031 | 18.67779 | 38175 ft | 489 kts | 357° |
| 2026-04-27 07:09 | 74.33737 | 18.67140 | 38180 ft | 490 kts | 357° |
| 2026-04-27 07:09 | 74.40508 | 18.66376 | 38172 ft | 490 kts | 357° |
| 2026-04-27 07:10 | 74.47324 | 18.65601 | 38172 ft | 490 kts | 357° |
| 2026-04-27 07:10 | 74.54141 | 18.64819 | 38171 ft | 490 kts | 357° |
| 2026-04-27 07:11 | 74.60960 | 18.64031 | 38177 ft | 490 kts | 357° |
| 2026-04-27 07:11 | 74.67769 | 18.63236 | 38184 ft | 490 kts | 357° |
| 2026-04-27 07:12 | 74.74593 | 18.62432 | 38179 ft | 490 kts | 357° |
| 2026-04-27 07:12 | 74.81429 | 18.61621 | 38168 ft | 491 kts | 357° |
| 2026-04-27 07:13 | 74.88275 | 18.60798 | 38178 ft | 491 kts | 357° |
| 2026-04-27 07:13 | 74.95061 | 18.59979 | 38178 ft | 491 kts | 357° |
| 2026-04-27 07:14 | 75.01895 | 18.59147 | 38181 ft | 491 kts | 357° |
| 2026-04-27 07:14 | 75.08741 | 18.58305 | 38181 ft | 492 kts | 357° |
| 2026-04-27 07:15 | 75.15560 | 18.57458 | 38183 ft | 492 kts | 357° |
| 2026-04-27 07:15 | 75.22403 | 18.56601 | 38184 ft | 492 kts | 357° |
| 2026-04-27 07:16 | 75.29256 | 18.55735 | 38186 ft | 492 kts | 357° |
| 2026-04-27 07:16 | 75.36105 | 18.54861 | 38187 ft | 492 kts | 357° |
| 2026-04-27 07:17 | 75.42941 | 18.53980 | 38190 ft | 492 kts | 357° |
| 2026-04-27 07:17 | 75.49810 | 18.53089 | 38186 ft | 493 kts | 357° |
| 2026-04-27 07:18 | 75.56683 | 18.52187 | 38189 ft | 494 kts | 357° |
| 2026-04-27 07:18 | 75.63548 | 18.51278 | 38186 ft | 493 kts | 357° |
| 2026-04-27 07:19 | 75.70410 | 18.50362 | 38184 ft | 493 kts | 356° |
| 2026-04-27 07:19 | 75.77278 | 18.49435 | 38187 ft | 494 kts | 357° |
| 2026-04-27 07:20 | 75.84100 | 18.48508 | 38191 ft | 493 kts | 356° |
| 2026-04-27 07:20 | 75.90978 | 18.47562 | 38192 ft | 494 kts | 356° |
| 2026-04-27 07:21 | 75.97867 | 18.46606 | 38192 ft | 495 kts | 356° |
| 2026-04-27 07:21 | 76.04757 | 18.45642 | 38192 ft | 495 kts | 357° |
| 2026-04-27 07:22 | 76.11603 | 18.44673 | 38192 ft | 495 kts | 356° |
| 2026-04-27 07:22 | 76.18473 | 18.43692 | 38203 ft | 495 kts | 357° |
| 2026-04-27 07:23 | 76.25374 | 18.42697 | 38196 ft | 495 kts | 356° |
| 2026-04-27 07:23 | 76.32268 | 18.41689 | 38198 ft | 496 kts | 357° |
| 2026-04-27 07:24 | 76.39173 | 18.40674 | 38198 ft | 495 kts | 356° |
| 2026-04-27 07:24 | 76.46066 | 18.39630 | 38196 ft | 496 kts | 355° |
| 2026-04-27 07:25 | 76.52895 | 18.37169 | 38197 ft | 494 kts | 352° |
| 2026-04-27 07:25 | 76.59749 | 18.33910 | 38201 ft | 495 kts | 352° |
| 2026-04-27 07:26 | 76.66610 | 18.30793 | 38203 ft | 496 kts | 353° |
| 2026-04-27 07:26 | 76.73468 | 18.27841 | 38114 ft | 490 kts | 353° |
| 2026-04-27 07:26 | 76.76775 | 18.26447 | 37455 ft | 478 kts | 353° |
| 2026-04-27 07:27 | 76.80064 | 18.25060 | 36530 ft | 472 kts | 353° |
| 2026-04-27 07:27 | 76.83346 | 18.23658 | 35254 ft | 476 kts | 353° |
| 2026-04-27 07:27 | 76.86665 | 18.22224 | 33927 ft | 479 kts | 353° |
| 2026-04-27 07:27 | 76.89986 | 18.20777 | 32366 ft | 481 kts | 353° |
| 2026-04-27 07:28 | 76.93329 | 18.19311 | 30752 ft | 484 kts | 353° |
| 2026-04-27 07:28 | 76.96676 | 18.17838 | 28962 ft | 484 kts | 353° |
| 2026-04-27 07:28 | 77.00041 | 18.16350 | 27125 ft | 485 kts | 353° |
| 2026-04-27 07:28 | 77.03379 | 18.14870 | 25839 ft | 475 kts | 353° |
| 2026-04-27 07:29 | 77.06627 | 18.13427 | 24718 ft | 462 kts | 354° |
| 2026-04-27 07:29 | 77.09792 | 18.12015 | 23508 ft | 452 kts | 354° |
| 2026-04-27 07:29 | 77.12880 | 18.10629 | 22124 ft | 442 kts | 354° |
| 2026-04-27 07:29 | 77.15921 | 18.09256 | 20810 ft | 433 kts | 354° |
| 2026-04-27 07:30 | 77.18877 | 18.07914 | 19758 ft | 420 kts | 354° |
| 2026-04-27 07:30 | 77.21725 | 18.06617 | 19428 ft | 409 kts | 354° |
| 2026-04-27 07:30 | 77.24564 | 18.05257 | 19157 ft | 410 kts | 352° |
| 2026-04-27 07:30 | 77.27332 | 18.02388 | 18913 ft | 408 kts | 341° |
| 2026-04-27 07:31 | 77.30005 | 17.98132 | 18655 ft | 406 kts | 339° |
| 2026-04-27 07:31 | 77.32646 | 17.93614 | 18381 ft | 403 kts | 339° |
| 2026-04-27 07:31 | 77.35173 | 17.89198 | 17978 ft | 385 kts | 339° |
| 2026-04-27 07:31 | 77.37672 | 17.84772 | 17497 ft | 384 kts | 339° |
| 2026-04-27 07:32 | 77.40149 | 17.80348 | 16997 ft | 379 kts | 338° |
| 2026-04-27 07:32 | 77.42592 | 17.75957 | 16482 ft | 374 kts | 338° |
| 2026-04-27 07:32 | 77.44996 | 17.71611 | 15989 ft | 370 kts | 338° |
| 2026-04-27 07:32 | 77.47379 | 17.67283 | 15489 ft | 367 kts | 338° |
| 2026-04-27 07:33 | 77.49749 | 17.62961 | 14989 ft | 364 kts | 338° |
| 2026-04-27 07:33 | 77.52093 | 17.58667 | 14492 ft | 361 kts | 338° |
| 2026-04-27 07:33 | 77.54423 | 17.54379 | 13975 ft | 358 kts | 338° |
| 2026-04-27 07:33 | 77.56720 | 17.50137 | 13446 ft | 355 kts | 338° |
| 2026-04-27 07:34 | 77.58979 | 17.45949 | 12955 ft | 351 kts | 338° |
| 2026-04-27 07:34 | 77.61245 | 17.41731 | 12472 ft | 349 kts | 338° |
| 2026-04-27 07:34 | 77.63491 | 17.37535 | 11967 ft | 347 kts | 338° |
| 2026-04-27 07:34 | 77.65716 | 17.33360 | 11666 ft | 338 kts | 338° |
| 2026-04-27 07:35 | 77.67847 | 17.29347 | 11511 ft | 324 kts | 338° |
| 2026-04-27 07:35 | 77.69901 | 17.25465 | 11389 ft | 310 kts | 338° |
| 2026-04-27 07:35 | 77.71856 | 17.21755 | 11234 ft | 297 kts | 338° |
| 2026-04-27 07:35 | 77.73735 | 17.18179 | 11106 ft | 285 kts | 338° |
| 2026-04-27 07:36 | 77.75538 | 17.14737 | 10967 ft | 274 kts | 338° |
| 2026-04-27 07:36 | 77.77249 | 17.11460 | 10801 ft | 263 kts | 338° |
| 2026-04-27 07:36 | 77.78917 | 17.08256 | 10683 ft | 256 kts | 338° |
| 2026-04-27 07:36 | 77.80569 | 17.05075 | 10517 ft | 256 kts | 338° |
| 2026-04-27 07:37 | 77.82215 | 17.01896 | 10311 ft | 255 kts | 338° |
| 2026-04-27 07:37 | 77.83863 | 16.98704 | 10036 ft | 260 kts | 338° |
| 2026-04-27 07:37 | 77.85587 | 16.95355 | 9954 ft | 271 kts | 338° |
| 2026-04-27 07:37 | 77.87328 | 16.91963 | 9703 ft | 269 kts | 338° |
| 2026-04-27 07:38 | 77.89063 | 16.88573 | 9186 ft | 270 kts | 338° |
| 2026-04-27 07:38 | 77.90779 | 16.85206 | 8836 ft | 268 kts | 338° |
| 2026-04-27 07:38 | 77.92503 | 16.81817 | 8529 ft | 267 kts | 338° |
| 2026-04-27 07:38 | 77.94218 | 16.78435 | 8220 ft | 266 kts | 338° |
| 2026-04-27 07:39 | 77.95928 | 16.75054 | 7944 ft | 265 kts | 338° |
| 2026-04-27 07:39 | 77.97619 | 16.71695 | 7715 ft | 258 kts | 338° |
| 2026-04-27 07:39 | 77.99225 | 16.68498 | 7587 ft | 247 kts | 338° |
| 2026-04-27 07:39 | 78.00821 | 16.65812 | 7409 ft | 240 kts | 348° |
| 2026-04-27 07:40 | 78.02485 | 16.65617 | 7203 ft | 240 kts | 8° |
| 2026-04-27 07:40 | 78.04124 | 16.67099 | 6941 ft | 239 kts | 12° |
| 2026-04-27 07:40 | 78.05750 | 16.68819 | 6664 ft | 238 kts | 12° |
| 2026-04-27 07:40 | 78.07353 | 16.70411 | 6479 ft | 230 kts | 8° |
| 2026-04-27 07:41 | 78.08893 | 16.70005 | 6365 ft | 216 kts | 342° |
| 2026-04-27 07:41 | 78.10137 | 16.66219 | 6302 ft | 213 kts | 313° |
| 2026-04-27 07:41 | 78.10996 | 16.60462 | 6239 ft | 211 kts | 303° |
| 2026-04-27 07:41 | 78.11741 | 16.54564 | 6143 ft | 198 kts | 303° |
| 2026-04-27 07:42 | 78.12453 | 16.48921 | 5898 ft | 194 kts | 303° |
| 2026-04-27 07:42 | 78.13159 | 16.43357 | 5605 ft | 193 kts | 303° |
| 2026-04-27 07:42 | 78.13863 | 16.37839 | 5319 ft | 191 kts | 303° |
| 2026-04-27 07:42 | 78.14558 | 16.32435 | 4964 ft | 188 kts | 303° |
| 2026-04-27 07:43 | 78.15242 | 16.27040 | 4495 ft | 187 kts | 303° |
| 2026-04-27 07:43 | 78.15920 | 16.21709 | 4088 ft | 181 kts | 303° |
| 2026-04-27 07:43 | 78.16544 | 16.16793 | 3959 ft | 165 kts | 303° |
| 2026-04-27 07:43 | 78.17130 | 16.12174 | 3963 ft | 155 kts | 303° |
| 2026-04-27 07:44 | 78.17674 | 16.07874 | 3956 ft | 145 kts | 303° |
| 2026-04-27 07:44 | 78.18206 | 16.03673 | 3789 ft | 146 kts | 303° |
| 2026-04-27 07:44 | 78.18741 | 15.99469 | 3488 ft | 145 kts | 303° |
| 2026-04-27 07:44 | 78.19402 | 15.95841 | 3184 ft | 143 kts | 318° |
| 2026-04-27 07:45 | 78.20152 | 15.92674 | 2882 ft | 142 kts | 320° |
| 2026-04-27 07:45 | 78.20911 | 15.89610 | 2656 ft | 144 kts | 321° |
| 2026-04-27 07:45 | 78.21707 | 15.86426 | 2075 ft | 156 kts | 321° |
| 2026-04-27 07:45 | 78.22531 | 15.82605 | 1421 ft | 166 kts | 306° |
| 2026-04-27 07:46 | 78.23053 | 15.77844 | 1120 ft | 152 kts | 284° |
| 2026-04-27 07:46 | 78.23170 | 15.73000 | 1042 ft | 137 kts | 276° |
| 2026-04-27 07:46 | 78.23328 | 15.68359 | 1026 ft | 141 kts | 284° |
| 2026-04-27 07:46 | 78.23609 | 15.63606 | 729 ft | 148 kts | 288° |
| 2026-04-27 07:47 | 78.23918 | 15.58828 | 443 ft | 143 kts | 288° |
| 2026-04-27 07:47 | 78.24189 | 15.54174 | 221 ft | 141 kts | 285° |
| 2026-04-27 07:47 | 78.24444 | 15.49551 | 99 ft | 140 kts | 286° |
| 2026-04-27 07:47 | 78.24652 | 15.45857 | 98 ft | 59 kts | 284° |
| 2026-04-27 07:48 | 78.24707 | 15.44859 | 98 ft | 25 kts | 285° |
| 2026-04-27 07:48 | 78.24754 | 15.44002 | 97 ft | 28 kts | 285° |
| 2026-04-27 07:48 | 78.24808 | 15.43024 | 96 ft | 31 kts | 286° |
| 2026-04-27 07:48 | 78.24869 | 15.41992 | 95 ft | 32 kts | 290° |
| 2026-04-27 07:49 | 78.24924 | 15.41430 | 98 ft | 0 kts | 289° |
| 2026-04-27 07:49 | 78.24927 | 15.41361 | 97 ft | 2 kts | 275° |
| 2026-04-27 07:49 | 78.24917 | 15.41325 | 98 ft | 2 kts | 209° |
| 2026-04-27 07:49 | 78.24904 | 15.41379 | 96 ft | 5 kts | 126° |
| 2026-04-27 07:50 | 78.24831 | 15.42654 | 97 ft | 87 kts | 105° |
| 2026-04-27 07:50 | 78.24590 | 15.47032 | 97 ft | 172 kts | 104° |
| 2026-04-27 07:50 | 78.24373 | 15.50894 | 94 ft | 56 kts | 109° |
| 2026-04-27 07:50 | 78.24321 | 15.51426 | 98 ft | 1 kts | 80° |
| 2026-04-27 07:51 | 78.24336 | 15.51445 | 97 ft | 3 kts | 357° |
| 2026-04-27 07:51 | 78.24352 | 15.51226 | 98 ft | 14 kts | 286° |
| 2026-04-27 07:51 | 78.24399 | 15.50394 | 96 ft | 38 kts | 285° |
| 2026-04-27 07:51 | 78.24440 | 15.49912 | 95 ft | 2 kts | 330° |
| 2026-04-27 07:52 | 78.24541 | 15.49943 | 97 ft | 0 kts | 11° |
| 2026-04-27 07:52 | 78.24545 | 15.49948 | 98 ft | 2 kts | 11° |